createdAt,value
2022-11-12T00:00:50.914Z,4.80
2022-11-12T00:03:19.074Z,4.57
2022-11-12T00:05:49.492Z,4.80
2022-11-12T00:08:17.856Z,4.67
2022-11-12T00:10:46.259Z,3.90
2022-11-12T00:13:14.449Z,4.80
2022-11-12T00:15:42.803Z,3.43
2022-11-12T00:18:11.266Z,4.13
2022-11-12T00:20:39.451Z,3.67
2022-11-12T00:23:08.963Z,2.87
2022-11-12T00:25:37.290Z,3.57
2022-11-12T00:28:05.927Z,3.00
2022-11-12T00:30:34.123Z,3.93
2022-11-12T00:33:03.538Z,3.03
2022-11-12T00:35:32.899Z,3.57
2022-11-12T00:38:01.526Z,3.40
2022-11-12T00:40:31.423Z,3.80
2022-11-12T00:42:59.583Z,3.20
2022-11-12T00:45:27.843Z,2.83
2022-11-12T00:47:56.795Z,3.67
2022-11-12T00:50:24.987Z,3.10
2022-11-12T00:52:53.734Z,2.70
2022-11-12T00:55:22.083Z,3.03
2022-11-12T00:57:51.602Z,2.90
2022-11-12T01:00:20.693Z,3.60
2022-11-12T01:02:51.320Z,3.07
2022-11-12T01:05:20.571Z,2.83
2022-11-12T01:07:53.290Z,3.10
2022-11-12T01:10:24.179Z,2.77
2022-11-12T01:12:53.679Z,2.70
2022-11-12T01:15:21.818Z,2.53
2022-11-12T01:17:49.955Z,2.90
2022-11-12T01:20:18.392Z,2.73
2022-11-12T01:22:46.597Z,2.70
2022-11-12T01:25:14.742Z,2.23
2022-11-12T01:27:42.924Z,2.57
2022-11-12T01:30:12.946Z,2.30
2022-11-12T01:32:41.103Z,2.20
2022-11-12T01:35:09.548Z,2.30
2022-11-12T01:37:37.701Z,2.00
2022-11-12T01:40:06.218Z,2.20
2022-11-12T01:42:34.615Z,1.90
2022-11-12T01:45:02.789Z,1.97
2022-11-12T01:47:33.664Z,2.20
2022-11-12T01:50:03.983Z,2.20
2022-11-12T01:52:33.422Z,1.73
2022-11-12T01:55:03.679Z,1.70
2022-11-12T01:57:35.281Z,1.90
2022-11-12T02:00:09.287Z,2.17
2022-11-12T02:02:39.254Z,2.27
2022-11-12T02:05:09.258Z,2.00
2022-11-12T02:07:38.370Z,2.00
2022-11-12T02:10:07.453Z,1.83
2022-11-12T02:12:53.556Z,2.00
2022-11-12T02:15:21.764Z,1.90
2022-11-12T02:17:51.281Z,1.77
2022-11-12T02:20:19.476Z,1.67
2022-11-12T02:22:48.985Z,1.70
2022-11-12T02:25:19.195Z,1.90
2022-11-12T02:27:51.539Z,1.67
2022-11-12T02:30:20.161Z,1.60
2022-11-12T02:32:48.307Z,1.50
2022-11-12T02:35:16.580Z,1.50
2022-11-12T02:37:44.751Z,1.70
2022-11-12T02:40:14.328Z,1.70
2022-11-12T02:42:42.472Z,1.57
2022-11-12T02:45:11.342Z,1.63
2022-11-12T02:47:39.550Z,1.57
2022-11-12T02:50:08.296Z,1.30
2022-11-12T02:52:36.554Z,1.50
2022-11-12T02:55:04.768Z,1.33
2022-11-12T02:57:34.297Z,1.70
2022-11-12T03:00:02.450Z,1.43
2022-11-12T03:02:30.596Z,1.40
2022-11-12T03:04:58.748Z,1.60
2022-11-12T03:07:27.055Z,1.40
2022-11-12T03:09:55.223Z,1.40
2022-11-12T03:12:23.370Z,1.27
2022-11-12T03:14:52.895Z,0.90
2022-11-12T03:17:21.034Z,1.30
2022-11-12T03:19:49.197Z,1.30
2022-11-12T03:22:17.391Z,1.40
2022-11-12T03:24:45.538Z,1.40
2022-11-12T03:27:13.703Z,1.27
2022-11-12T03:29:41.870Z,1.27
2022-11-12T03:32:11.375Z,1.07
2022-11-12T03:34:39.512Z,1.50
2022-11-12T03:37:09.474Z,1.20
2022-11-12T03:39:37.710Z,1.30
2022-11-12T03:42:05.901Z,1.13
2022-11-12T03:44:34.093Z,1.40
2022-11-12T03:47:02.244Z,1.30
2022-11-12T03:49:31.758Z,1.23
2022-11-12T03:51:59.929Z,1.33
2022-11-12T03:54:28.135Z,1.37
2022-11-12T03:56:56.286Z,1.10
2022-11-12T03:59:24.431Z,1.00
2022-11-12T04:01:52.571Z,1.40
2022-11-12T04:04:20.721Z,1.20
2022-11-12T04:07:08.127Z,1.20
2022-11-12T04:09:36.295Z,1.37
2022-11-12T04:12:24.635Z,1.20
2022-11-12T04:14:51.798Z,1.20
2022-11-12T04:17:37.432Z,1.27
2022-11-12T04:20:23.691Z,1.23
2022-11-12T04:22:53.215Z,1.30
2022-11-12T04:25:38.804Z,1.40
2022-11-12T04:28:06.947Z,1.10
2022-11-12T04:30:34.109Z,1.23
2022-11-12T04:33:02.245Z,1.20
2022-11-12T04:35:30.385Z,1.00
2022-11-12T04:38:00.105Z,1.33
2022-11-12T04:40:46.555Z,1.00
2022-11-12T04:43:33.288Z,0.90
2022-11-12T04:46:02.327Z,1.00
2022-11-12T04:48:30.787Z,1.07
2022-11-12T04:51:00.419Z,1.00
2022-11-12T04:53:30.362Z,2.00
2022-11-12T04:55:59.758Z,1.60
2022-11-12T04:58:28.125Z,0.87
2022-11-12T05:00:56.625Z,1.10
2022-11-12T05:03:24.839Z,1.40
2022-11-12T05:05:53.030Z,1.20
2022-11-12T05:08:21.179Z,1.03
2022-11-12T05:10:50.683Z,1.10
2022-11-12T05:13:18.807Z,1.10
2022-11-12T05:15:46.978Z,1.10
2022-11-12T05:18:15.122Z,1.20
2022-11-12T05:20:43.282Z,0.93
2022-11-12T05:23:11.432Z,1.17
2022-11-12T05:25:39.643Z,1.10
2022-11-12T05:28:09.147Z,1.10
2022-11-12T05:30:37.289Z,1.03
2022-11-12T05:33:05.451Z,1.30
2022-11-12T05:35:33.618Z,1.10
2022-11-12T05:38:01.774Z,1.33
2022-11-12T05:40:29.911Z,1.03
2022-11-12T05:42:58.076Z,1.10
2022-11-12T05:45:27.557Z,1.40
2022-11-12T05:47:55.716Z,1.20
2022-11-12T05:50:23.881Z,1.20
2022-11-12T05:52:52.018Z,1.13
2022-11-12T05:55:20.187Z,1.17
2022-11-12T05:57:48.351Z,1.03
2022-11-12T06:00:17.073Z,1.10
2022-11-12T06:02:46.607Z,1.20
2022-11-12T06:05:14.792Z,1.10
2022-11-12T06:07:42.953Z,1.07
2022-11-12T06:10:14.836Z,1.23
2022-11-12T06:12:45.729Z,1.30
2022-11-12T06:15:13.878Z,1.10
2022-11-12T06:17:42.031Z,1.17
2022-11-12T06:20:12.071Z,1.20
2022-11-12T06:22:40.230Z,1.20
2022-11-12T06:25:08.651Z,1.03
2022-11-12T06:27:37.003Z,1.20
2022-11-12T06:30:05.580Z,1.00
2022-11-12T06:32:33.747Z,0.93
2022-11-12T06:35:01.935Z,1.10
2022-11-12T06:37:31.450Z,1.20
2022-11-12T06:39:59.637Z,1.20
2022-11-12T06:42:27.786Z,1.40
2022-11-12T06:44:55.934Z,1.60
2022-11-12T06:47:24.092Z,1.30
2022-11-12T06:49:52.238Z,1.70
2022-11-12T06:52:20.387Z,1.60
2022-11-12T06:54:49.868Z,1.57
2022-11-12T06:57:18.019Z,1.30
2022-11-12T06:59:46.182Z,1.63
2022-11-12T07:02:14.403Z,1.40
2022-11-12T07:04:42.558Z,1.60
2022-11-12T07:07:11.255Z,1.50
2022-11-12T07:09:39.500Z,1.30
2022-11-12T07:12:09.293Z,1.50
2022-11-12T07:14:37.522Z,1.50
2022-11-12T07:17:05.683Z,1.73
2022-11-12T07:19:33.823Z,1.77
2022-11-12T07:22:01.977Z,1.30
2022-11-12T07:24:30.135Z,1.70
2022-11-12T07:26:58.287Z,1.30
2022-11-12T07:29:46.267Z,1.60
2022-11-12T07:32:15.928Z,1.27
2022-11-12T07:34:44.070Z,1.30
2022-11-12T07:37:12.239Z,1.60
2022-11-12T07:39:40.440Z,1.40
2022-11-12T07:42:08.622Z,1.43
2022-11-12T07:44:38.130Z,1.47
2022-11-12T07:47:06.318Z,3.37
2022-11-12T07:49:34.468Z,1.70
2022-11-12T07:52:02.647Z,1.80
2022-11-12T07:54:30.799Z,1.40
2022-11-12T07:57:00.054Z,1.30
2022-11-12T07:59:28.204Z,1.50
2022-11-12T08:01:57.778Z,1.60
2022-11-12T08:04:26.053Z,1.37
2022-11-12T08:06:54.374Z,1.20
2022-11-12T08:09:22.671Z,1.20
2022-11-12T08:11:50.806Z,1.30
2022-11-12T08:14:18.960Z,1.10
2022-11-12T08:16:47.595Z,1.30
2022-11-12T08:19:17.071Z,1.03
2022-11-12T08:21:45.475Z,1.50
2022-11-12T08:24:13.814Z,1.40
2022-11-12T08:26:41.959Z,1.50
2022-11-12T08:29:10.132Z,1.40
2022-11-12T08:31:38.425Z,1.50
2022-11-12T08:34:14.380Z,1.37
2022-11-12T08:36:46.880Z,1.43
2022-11-12T08:39:15.027Z,1.47
2022-11-12T08:41:43.194Z,1.47
2022-11-12T08:44:11.376Z,1.50
2022-11-12T08:46:39.504Z,1.60
2022-11-12T08:49:07.677Z,1.70
2022-11-12T08:51:35.849Z,1.47
2022-11-12T08:54:05.465Z,1.63
2022-11-12T08:56:33.920Z,1.37
2022-11-12T08:59:07.064Z,1.50
2022-11-12T09:01:35.672Z,1.40
2022-11-12T09:04:03.846Z,1.70
2022-11-12T09:06:32.103Z,1.70
2022-11-12T09:09:00.275Z,1.60
2022-11-12T09:11:29.811Z,1.77
2022-11-12T09:13:58.043Z,1.40
2022-11-12T09:16:26.192Z,1.30
2022-11-12T09:18:54.394Z,1.60
2022-11-12T09:21:24.689Z,1.37
2022-11-12T09:23:52.886Z,1.40
2022-11-12T09:26:21.109Z,1.30
2022-11-12T09:28:52.287Z,1.30
2022-11-12T09:31:20.437Z,1.10
2022-11-12T09:33:48.598Z,1.10
2022-11-12T09:36:17.877Z,1.20
2022-11-12T09:38:46.076Z,1.10
2022-11-12T09:41:18.047Z,1.30
2022-11-12T09:43:50.262Z,1.13
2022-11-12T09:46:29.079Z,1.10
2022-11-12T09:49:01.547Z,1.30
2022-11-12T09:51:30.506Z,1.07
2022-11-12T09:53:59.558Z,1.37
2022-11-12T09:56:29.769Z,1.33
2022-11-12T09:58:58.075Z,1.20
2022-11-12T10:01:40.528Z,1.57
2022-11-12T10:04:18.120Z,1.50
2022-11-12T10:06:48.467Z,1.70
2022-11-12T10:09:20.798Z,1.90
2022-11-12T10:12:16.524Z,1.87
2022-11-12T10:14:53.934Z,1.80
2022-11-12T10:17:28.389Z,1.80
2022-11-12T10:20:01.098Z,1.60
2022-11-12T10:22:37.435Z,1.63
2022-11-12T10:25:14.543Z,1.30
2022-11-12T10:27:43.802Z,1.73
2022-11-12T10:30:16.510Z,1.80
2022-11-12T10:32:46.714Z,1.90
2022-11-12T10:35:17.751Z,1.40
2022-11-12T10:37:49.886Z,1.70
2022-11-12T10:40:32.903Z,1.40
2022-11-12T10:43:01.926Z,1.17
2022-11-12T10:45:30.575Z,1.40
2022-11-12T10:48:00.498Z,1.17
2022-11-12T10:50:31.211Z,1.00
2022-11-12T10:53:00.735Z,0.90
2022-11-12T10:55:30.174Z,0.80
2022-11-12T10:58:19.660Z,0.90
2022-11-12T11:00:55.526Z,0.70
2022-11-12T11:03:25.856Z,0.60
2022-11-12T11:05:55.389Z,0.73
2022-11-12T11:08:40.512Z,0.70
2022-11-12T11:11:27.809Z,0.60
2022-11-12T11:13:56.640Z,0.70
2022-11-12T11:16:25.443Z,0.90
2022-11-12T11:18:56.882Z,0.70
2022-11-12T11:21:37.900Z,0.70
2022-11-12T11:24:17.886Z,0.50
2022-11-12T11:26:51.122Z,2.40
2022-11-12T11:29:30.076Z,1.80
2022-11-12T11:32:03.965Z,1.50
2022-11-12T11:34:39.724Z,2.33
2022-11-12T11:37:09.874Z,2.80
2022-11-12T11:39:42.975Z,2.60
2022-11-12T11:42:18.577Z,2.70
2022-11-12T11:44:53.196Z,2.40
2022-11-12T11:47:34.263Z,2.23
2022-11-12T11:50:20.239Z,2.13
2022-11-12T11:52:52.504Z,2.60
2022-11-12T11:55:31.433Z,2.23
2022-11-12T11:58:06.225Z,2.07
2022-11-12T12:00:39.687Z,2.20
2022-11-12T12:03:17.010Z,2.33
2022-11-12T12:05:49.535Z,2.30
2022-11-12T12:08:19.800Z,2.07
2022-11-12T12:11:07.415Z,2.23
2022-11-12T12:13:53.504Z,2.13
2022-11-12T12:16:43.395Z,2.50
2022-11-12T12:19:22.121Z,2.03
2022-11-12T12:21:53.063Z,1.97
2022-11-12T12:24:25.009Z,2.10
2022-11-12T12:26:56.155Z,1.90
2022-11-12T12:29:30.955Z,1.83
2022-11-12T12:32:06.249Z,2.03
2022-11-12T12:34:37.799Z,2.03
2022-11-12T12:37:16.245Z,1.77
2022-11-12T12:39:52.946Z,1.77
2022-11-12T12:42:26.192Z,1.40
2022-11-12T12:45:04.713Z,1.60
2022-11-12T12:47:37.736Z,1.60
2022-11-12T12:50:11.973Z,1.70
2022-11-12T12:53:04.262Z,1.90
2022-11-12T12:55:37.807Z,1.53
2022-11-12T12:58:06.039Z,1.50
2022-11-12T13:00:37.868Z,1.60
2022-11-12T13:03:06.303Z,1.43
2022-11-12T13:05:35.635Z,1.30
2022-11-12T13:08:08.877Z,1.60
2022-11-12T13:10:54.670Z,1.70
2022-11-12T13:13:31.935Z,2.47
2022-11-12T13:16:01.862Z,2.07
2022-11-12T13:18:59.237Z,2.80
2022-11-12T13:21:27.231Z,2.90
2022-11-12T13:24:11.431Z,3.43
2022-11-12T13:26:54.327Z,2.80
2022-11-12T13:29:46.990Z,3.33
2022-11-12T13:32:38.369Z,3.43
2022-11-12T13:35:29.172Z,2.83
2022-11-12T13:38:00.311Z,2.80
2022-11-12T13:40:40.915Z,2.97
2022-11-12T13:43:17.461Z,3.10
2022-11-12T13:45:49.511Z,2.93
2022-11-12T13:48:23.367Z,2.97
2022-11-12T13:50:54.113Z,2.20
2022-11-12T13:53:25.285Z,2.13
2022-11-12T13:55:55.816Z,1.70
2022-11-12T13:58:31.562Z,1.53
2022-11-12T14:01:02.365Z,1.70
2022-11-12T14:03:33.552Z,1.60
2022-11-12T14:06:06.142Z,1.40
2022-11-12T14:09:00.527Z,1.80
2022-11-12T14:11:53.544Z,1.80
2022-11-12T14:14:34.007Z,1.87
2022-11-12T14:17:22.271Z,2.23
2022-11-12T14:20:09.123Z,1.83
2022-11-12T14:22:40.999Z,2.20
2022-11-12T14:25:19.299Z,2.30
2022-11-12T14:27:49.869Z,2.00
2022-11-12T14:30:21.519Z,2.20
2022-11-12T14:32:52.494Z,2.30
2022-11-12T14:35:30.216Z,2.50
2022-11-12T14:38:04.060Z,2.63
2022-11-12T14:40:34.652Z,2.60
2022-11-12T14:43:04.312Z,2.90
2022-11-12T14:45:35.158Z,2.80
2022-11-12T14:48:03.354Z,3.60
2022-11-12T14:50:39.040Z,3.67
2022-11-12T14:53:14.798Z,4.30
2022-11-12T14:55:45.581Z,5.40
2022-11-12T14:58:16.306Z,5.53
2022-11-12T15:00:45.189Z,5.17
2022-11-12T15:03:14.827Z,5.63
2022-11-12T15:05:59.810Z,5.33
2022-11-12T15:08:32.054Z,6.23
2022-11-12T15:11:21.329Z,6.93
2022-11-12T15:13:52.134Z,8.03
2022-11-12T15:16:23.039Z,7.73
2022-11-12T15:19:05.802Z,7.00
2022-11-12T15:21:34.188Z,7.60
2022-11-12T15:24:06.552Z,7.07
2022-11-12T15:26:36.046Z,7.80
2022-11-12T15:29:15.108Z,7.07
2022-11-12T15:31:46.631Z,7.47
2022-11-12T15:34:26.279Z,5.97
2022-11-12T15:36:54.596Z,6.17
2022-11-12T15:39:23.309Z,4.90
2022-11-12T15:41:57.951Z,5.20
2022-11-12T15:44:27.849Z,5.23
2022-11-12T15:46:56.067Z,5.13
2022-11-12T15:49:24.229Z,4.87
2022-11-12T15:51:52.393Z,4.47
2022-11-12T15:54:20.562Z,4.93
2022-11-12T15:56:49.024Z,6.17
2022-11-12T15:59:18.549Z,6.77
2022-11-12T16:01:48.114Z,5.83
2022-11-12T16:04:16.327Z,5.17
2022-11-12T16:06:44.516Z,5.20
2022-11-12T16:09:12.700Z,5.03
2022-11-12T16:11:40.867Z,5.33
2022-11-12T16:14:12.147Z,6.37
2022-11-12T16:16:40.768Z,5.87
2022-11-12T16:19:16.148Z,5.00
2022-11-12T16:21:44.299Z,5.03
2022-11-12T16:24:12.441Z,5.27
2022-11-12T16:26:40.946Z,4.87
2022-11-12T16:29:11.849Z,4.37
2022-11-12T16:31:40.019Z,4.67
2022-11-12T16:34:08.247Z,4.40
2022-11-12T16:36:37.978Z,4.90
2022-11-12T16:39:06.316Z,4.63
2022-11-12T16:41:34.499Z,4.67
2022-11-12T16:44:02.658Z,4.80
2022-11-12T16:46:32.151Z,4.63
2022-11-12T16:49:00.308Z,4.60
2022-11-12T16:51:28.450Z,4.90
2022-11-12T16:53:57.959Z,4.83
2022-11-12T16:56:26.086Z,4.60
2022-11-12T16:58:54.291Z,4.60
2022-11-12T17:01:25.426Z,4.17
2022-11-12T17:03:54.390Z,4.57
2022-11-12T17:06:23.243Z,4.20
2022-11-12T17:08:55.164Z,4.57
2022-11-12T17:11:24.655Z,4.33
2022-11-12T17:13:52.808Z,4.07
2022-11-12T17:16:21.056Z,4.67
2022-11-12T17:18:49.310Z,4.63
2022-11-12T17:21:18.358Z,4.10
2022-11-12T17:23:46.625Z,3.83
2022-11-12T17:26:15.917Z,4.17
2022-11-12T17:28:45.566Z,4.47
2022-11-12T17:31:14.778Z,5.00
2022-11-12T17:33:43.689Z,5.57
2022-11-12T17:36:12.709Z,6.67
2022-11-12T17:38:41.348Z,5.53
2022-11-12T17:41:10.020Z,6.50
2022-11-12T17:43:38.382Z,5.40
2022-11-12T17:46:08.731Z,5.27
2022-11-12T17:48:37.306Z,9.00
2022-11-12T17:51:06.871Z,13.27
2022-11-12T17:53:35.050Z,9.20
2022-11-12T17:56:03.393Z,7.63
2022-11-12T17:58:31.682Z,6.97
2022-11-12T18:01:05.760Z,6.87
2022-11-12T18:03:35.563Z,7.70
2022-11-12T18:06:03.762Z,7.60
2022-11-12T18:08:31.910Z,6.97
2022-11-12T18:11:00.096Z,7.90
2022-11-12T18:13:28.870Z,8.07
2022-11-12T18:15:57.257Z,8.80
2022-11-12T18:18:25.660Z,8.00
2022-11-12T18:20:55.291Z,8.40
2022-11-12T18:23:23.833Z,8.27
2022-11-12T18:25:52.122Z,8.50
2022-11-12T18:28:20.273Z,8.23
2022-11-12T18:30:48.403Z,7.53
2022-11-12T18:33:16.546Z,8.93
2022-11-12T18:35:44.692Z,8.33
2022-11-12T18:38:14.243Z,8.00
2022-11-12T18:40:42.390Z,8.30
2022-11-12T18:43:10.529Z,7.43
2022-11-12T18:45:39.263Z,7.33
2022-11-12T18:48:07.658Z,7.97
2022-11-12T18:50:35.836Z,7.77
2022-11-12T18:53:03.985Z,7.40
2022-11-12T18:55:33.510Z,7.20
2022-11-12T18:58:01.664Z,7.03
2022-11-12T19:00:29.829Z,8.00
2022-11-12T19:02:57.987Z,7.80
2022-11-12T19:05:26.547Z,10.80
2022-11-12T19:07:54.766Z,8.30
2022-11-12T19:10:22.949Z,7.63
2022-11-12T19:12:52.455Z,6.67
2022-11-12T19:15:25.552Z,7.77
2022-11-12T19:17:54.995Z,7.27
2022-11-12T19:20:23.147Z,7.53
2022-11-12T19:22:51.312Z,8.00
2022-11-12T19:25:19.458Z,7.73
2022-11-12T19:27:47.634Z,9.17
2022-11-12T19:30:17.509Z,7.47
2022-11-12T19:32:45.663Z,7.73
2022-11-12T19:35:13.838Z,8.37
2022-11-12T19:37:41.985Z,8.50
2022-11-12T19:40:10.876Z,8.90
2022-11-12T19:42:39.072Z,9.47
2022-11-12T19:45:07.787Z,8.63
2022-11-12T19:47:37.303Z,9.47
2022-11-12T19:50:05.615Z,9.00
2022-11-12T19:52:33.783Z,10.30
2022-11-12T19:55:01.939Z,10.50
2022-11-12T19:57:30.086Z,10.57
2022-11-12T19:59:58.235Z,10.87
2022-11-12T20:02:26.496Z,9.80
2022-11-12T20:04:56.001Z,10.73
2022-11-12T20:07:25.059Z,10.47
2022-11-12T20:09:56.582Z,10.30
2022-11-12T20:12:29.809Z,11.23
2022-11-12T20:14:58.242Z,10.40
2022-11-12T20:17:26.444Z,9.63
2022-11-12T20:19:55.970Z,10.23
2022-11-12T20:22:29.193Z,9.93
2022-11-12T20:24:59.865Z,9.87
2022-11-12T20:27:28.084Z,10.37
2022-11-12T20:29:56.302Z,10.10
2022-11-12T20:32:24.761Z,11.17
2022-11-12T20:34:52.903Z,11.60
2022-11-12T20:37:23.594Z,10.77
2022-11-12T20:39:51.757Z,12.43
2022-11-12T20:42:19.932Z,12.90
2022-11-12T20:44:48.088Z,11.50
2022-11-12T20:47:16.373Z,11.57
2022-11-12T20:49:44.576Z,10.53
2022-11-12T20:52:12.727Z,12.10
2022-11-12T20:54:42.291Z,9.90
2022-11-12T20:57:10.447Z,9.90
2022-11-12T20:59:41.124Z,10.43
2022-11-12T21:02:10.860Z,10.20
2022-11-12T21:04:39.109Z,8.93
2022-11-12T21:07:07.454Z,10.27
2022-11-12T21:09:35.691Z,10.37
2022-11-12T21:12:05.500Z,11.27
2022-11-12T21:14:33.641Z,12.00
2022-11-12T21:17:01.874Z,11.93
2022-11-12T21:19:30.022Z,11.17
2022-11-12T21:21:58.193Z,11.20
2022-11-12T21:24:26.577Z,11.47
2022-11-12T21:26:54.850Z,11.50
2022-11-12T21:29:24.445Z,9.17
2022-11-12T21:31:52.603Z,9.97
2022-11-12T21:34:20.769Z,9.60
2022-11-12T21:36:48.951Z,9.07
2022-11-12T21:39:17.260Z,9.17
2022-11-12T21:41:45.415Z,8.13
2022-11-12T21:44:13.675Z,7.93
2022-11-12T21:46:43.239Z,7.40
2022-11-12T21:49:11.498Z,7.30
2022-11-12T21:51:39.664Z,6.93
2022-11-12T21:54:08.732Z,7.03
2022-11-12T21:56:37.847Z,6.90
2022-11-12T21:59:06.118Z,8.03
2022-11-12T22:01:35.386Z,6.40
2022-11-12T22:04:08.162Z,6.20
2022-11-12T22:06:37.830Z,5.50
2022-11-12T22:09:06.610Z,6.00
2022-11-12T22:11:34.773Z,6.13
2022-11-12T22:14:03.033Z,5.77
2022-11-12T22:16:31.194Z,5.10
2022-11-12T22:19:00.181Z,6.23
2022-11-12T22:21:35.374Z,5.47
2022-11-12T22:24:07.250Z,5.63
2022-11-12T22:26:35.436Z,5.50
2022-11-12T22:29:03.838Z,5.73
2022-11-12T22:31:32.764Z,5.60
2022-11-12T22:34:02.084Z,5.83
2022-11-12T22:36:32.863Z,5.47
2022-11-12T22:39:01.020Z,5.43
2022-11-12T22:41:30.452Z,5.23
2022-11-12T22:43:59.375Z,5.23
2022-11-12T22:46:28.663Z,4.87
2022-11-12T22:48:57.195Z,5.37
2022-11-12T22:51:26.486Z,4.60
2022-11-12T22:53:56.443Z,4.30
2022-11-12T22:56:25.092Z,4.80
2022-11-12T22:58:53.307Z,4.40
2022-11-12T23:01:22.638Z,4.20
2022-11-12T23:03:51.425Z,3.93
2022-11-12T23:06:20.095Z,3.53
2022-11-12T23:08:48.294Z,3.93
2022-11-12T23:11:18.675Z,4.07
2022-11-12T23:13:46.828Z,3.70
2022-11-12T23:16:16.442Z,3.90
2022-11-12T23:18:44.812Z,3.43
2022-11-12T23:21:13.692Z,3.50
2022-11-12T23:23:42.126Z,3.63
2022-11-12T23:26:11.990Z,2.60
2022-11-12T23:28:41.516Z,2.20
2022-11-12T23:31:11.541Z,1.80
2022-11-12T23:33:39.951Z,1.77
2022-11-12T23:36:09.266Z,1.63
2022-11-12T23:38:37.415Z,1.60
2022-11-12T23:41:06.582Z,1.57
2022-11-12T23:43:34.940Z,1.60
2022-11-12T23:46:04.477Z,1.37
2022-11-12T23:48:32.711Z,1.37
2022-11-12T23:51:02.544Z,1.50
2022-11-12T23:53:30.776Z,1.50
2022-11-12T23:55:59.020Z,1.90
2022-11-12T23:58:27.577Z,1.40
